PILOTS ONLINE: 332    ATC ONLINE: 49

KSTS

Charles M. Schulz Sonoma County Airport

Location

IATA STS
City Santa Rosa
Country  United States
Latitude 38° 30' 32" N
Longitude 122° 48' 46" W
Elevation 128 ft
Type Medium Airport

Map

Weather

METAR
2014/09/02 22:53
KSTS 022253Z 16011KT 10SM FEW010 22/13 A2977 RMK AO2 SLP075 T02170128
TAF
2014/09/02 21:57
TAF 
      AMD KSTS 022055Z 0221/0318 19010G15KT P6SM SKC 
     FM030400 16005KT P6SM SKC 
     FM030600 VRB03KT 2SM BR OVC004

Runways

01/19 5002 ft / 100 ft
14/32 5115 ft / 150 ft

Outbound flights

Callsign Flying to Pilot ATD/STD ETA Aircraft

Inbound flights

Callsign Flying from Pilot ATD ETA Aircraft